createdAt,value
2022-11-17T00:00:24.848Z,4.30
2022-11-17T00:02:52.773Z,3.90
2022-11-17T00:05:20.965Z,3.80
2022-11-17T00:07:50.006Z,3.63
2022-11-17T00:10:18.741Z,3.90
2022-11-17T00:13:14.052Z,4.03
2022-11-17T00:15:44.060Z,4.20
2022-11-17T00:18:29.598Z,4.00
2022-11-17T00:21:14.857Z,4.03
2022-11-17T00:23:48.681Z,3.40
2022-11-17T00:26:17.606Z,4.30
2022-11-17T00:28:47.115Z,4.33
2022-11-17T00:31:33.635Z,4.60
2022-11-17T00:34:07.608Z,4.47
2022-11-17T00:36:38.773Z,5.00
2022-11-17T00:39:07.273Z,5.23
2022-11-17T00:41:35.240Z,4.70
2022-11-17T00:44:05.046Z,4.57
2022-11-17T00:46:33.673Z,4.23
2022-11-17T00:49:01.687Z,4.70
2022-11-17T00:51:30.040Z,4.53
2022-11-17T00:53:57.933Z,5.00
2022-11-17T00:56:27.434Z,5.00
2022-11-17T00:58:55.472Z,5.20
2022-11-17T01:01:25.174Z,4.60
2022-11-17T01:04:03.310Z,4.83
2022-11-17T01:06:33.704Z,5.43
2022-11-17T01:09:02.138Z,4.80
2022-11-17T01:11:30.128Z,5.00
2022-11-17T01:13:59.559Z,4.90
2022-11-17T01:16:30.601Z,5.43
2022-11-17T01:19:00.665Z,5.33
2022-11-17T01:21:29.825Z,5.23
2022-11-17T01:23:59.779Z,5.03
2022-11-17T01:26:29.186Z,5.10
2022-11-17T01:28:57.291Z,5.23
2022-11-17T01:31:27.428Z,5.50
2022-11-17T01:33:57.655Z,5.53
2022-11-17T01:36:27.844Z,5.30
2022-11-17T01:38:56.402Z,5.87
2022-11-17T01:41:27.172Z,5.73
2022-11-17T01:43:56.547Z,6.03
2022-11-17T01:46:33.336Z,5.23
2022-11-17T01:49:08.402Z,5.70
2022-11-17T01:51:41.135Z,6.00
2022-11-17T01:54:12.493Z,5.47
2022-11-17T01:56:44.644Z,6.07
2022-11-17T01:59:20.097Z,5.90
2022-11-17T02:01:56.694Z,6.00
2022-11-17T02:04:30.926Z,5.73
2022-11-17T02:07:06.523Z,6.40
2022-11-17T02:09:38.599Z,5.93
2022-11-17T02:12:09.803Z,6.10
2022-11-17T02:14:37.826Z,6.57
2022-11-17T02:17:13.712Z,6.50
2022-11-17T02:19:45.504Z,6.30
2022-11-17T02:22:34.921Z,5.80
2022-11-17T02:25:30.261Z,6.70
2022-11-17T02:28:12.108Z,6.27
2022-11-17T02:30:47.898Z,6.00
2022-11-17T02:33:24.311Z,6.00
2022-11-17T02:35:59.833Z,5.93
2022-11-17T02:38:34.178Z,5.67
2022-11-17T02:41:08.985Z,6.33
2022-11-17T02:44:03.758Z,5.80
2022-11-17T02:46:38.438Z,6.47
2022-11-17T02:49:13.484Z,5.90
2022-11-17T02:51:44.116Z,6.10
2022-11-17T02:54:13.274Z,6.33
2022-11-17T02:56:44.556Z,5.93
2022-11-17T02:59:16.494Z,6.40
2022-11-17T03:02:13.915Z,6.10
2022-11-17T03:04:51.444Z,6.53
2022-11-17T03:07:32.303Z,5.93
2022-11-17T03:10:10.680Z,6.30
2022-11-17T03:12:48.212Z,6.00
2022-11-17T03:15:26.576Z,5.80
2022-11-17T03:18:04.329Z,6.33
2022-11-17T03:20:38.365Z,6.87
2022-11-17T03:23:12.249Z,5.70
2022-11-17T03:25:46.472Z,6.50
2022-11-17T03:28:18.205Z,6.00
2022-11-17T03:30:49.387Z,6.07
2022-11-17T03:33:21.259Z,5.90
2022-11-17T03:35:56.119Z,6.03
2022-11-17T03:38:27.855Z,6.20
2022-11-17T03:40:59.385Z,6.30
2022-11-17T03:43:29.464Z,5.83
2022-11-17T03:46:03.830Z,5.90
2022-11-17T03:48:38.011Z,6.00
2022-11-17T03:51:10.414Z,6.23
2022-11-17T03:53:38.666Z,5.73
2022-11-17T03:56:15.012Z,6.00
2022-11-17T03:58:56.472Z,6.00
2022-11-17T04:01:26.969Z,5.80
2022-11-17T04:03:54.907Z,6.40
2022-11-17T04:06:22.946Z,6.10
2022-11-17T04:08:50.748Z,6.13
2022-11-17T04:11:36.269Z,6.17
2022-11-17T04:14:21.634Z,6.40
2022-11-17T04:16:50.918Z,6.53
2022-11-17T04:19:18.768Z,6.00
2022-11-17T04:21:46.649Z,5.97
2022-11-17T04:24:14.629Z,6.00
2022-11-17T04:26:59.846Z,5.53
2022-11-17T04:29:28.579Z,6.00
2022-11-17T04:31:57.829Z,6.00
2022-11-17T04:34:25.652Z,6.20
2022-11-17T04:36:53.558Z,6.43
2022-11-17T04:39:21.408Z,6.17
2022-11-17T04:41:54.064Z,6.37
2022-11-17T04:44:23.900Z,6.67
2022-11-17T04:46:52.013Z,6.40
2022-11-17T04:49:22.262Z,6.20
2022-11-17T04:51:51.386Z,7.03
2022-11-17T04:54:21.722Z,6.83
2022-11-17T04:56:49.626Z,7.23
2022-11-17T04:59:17.476Z,7.30
2022-11-17T05:01:45.842Z,7.87
2022-11-17T05:04:15.438Z,7.00
2022-11-17T05:06:46.186Z,7.37
2022-11-17T05:09:16.768Z,6.73
2022-11-17T05:12:03.021Z,6.77
2022-11-17T05:14:31.260Z,7.70
2022-11-17T05:17:10.899Z,6.90
2022-11-17T05:19:41.619Z,7.00
2022-11-17T05:22:25.710Z,7.43
2022-11-17T05:24:53.915Z,7.43
2022-11-17T05:27:22.242Z,7.87
2022-11-17T05:29:50.438Z,7.47
2022-11-17T05:32:18.599Z,7.63
2022-11-17T05:34:46.631Z,7.57
2022-11-17T05:37:15.929Z,7.83
2022-11-17T05:39:43.774Z,7.70
2022-11-17T05:42:11.806Z,7.70
2022-11-17T05:44:40.112Z,7.17
2022-11-17T05:47:08.092Z,8.43
2022-11-17T05:49:35.972Z,8.30
2022-11-17T05:52:03.919Z,7.60
2022-11-17T05:54:33.125Z,8.43
2022-11-17T05:57:04.601Z,8.37
2022-11-17T05:59:35.147Z,8.20
2022-11-17T06:02:08.447Z,8.77
2022-11-17T06:04:36.761Z,8.30
2022-11-17T06:07:04.797Z,8.77
2022-11-17T06:09:36.585Z,8.60
2022-11-17T06:12:06.383Z,8.40
2022-11-17T06:14:34.843Z,9.40
2022-11-17T06:17:06.093Z,8.60
2022-11-17T06:19:38.362Z,8.67
2022-11-17T06:22:14.295Z,8.40
2022-11-17T06:24:45.792Z,8.57
2022-11-17T06:27:16.772Z,9.23
2022-11-17T06:29:46.996Z,9.47
2022-11-17T06:32:15.420Z,8.63
2022-11-17T06:34:47.976Z,8.47
2022-11-17T06:37:18.419Z,9.17
2022-11-17T06:39:48.081Z,9.30
2022-11-17T06:42:16.007Z,9.10
2022-11-17T06:44:44.538Z,9.13
2022-11-17T06:47:12.522Z,8.60
2022-11-17T06:49:40.422Z,9.50
2022-11-17T06:52:08.501Z,9.67
2022-11-17T06:54:36.422Z,9.33
2022-11-17T06:57:05.697Z,8.70
2022-11-17T06:59:33.665Z,9.43
2022-11-17T07:02:01.526Z,8.80
2022-11-17T07:04:29.370Z,9.47
2022-11-17T07:06:57.259Z,8.43
2022-11-17T07:09:25.523Z,8.67
2022-11-17T07:11:53.374Z,8.80
2022-11-17T07:14:22.558Z,8.87
2022-11-17T07:16:50.577Z,9.50
2022-11-17T07:19:18.702Z,9.13
2022-11-17T07:21:46.519Z,9.60
2022-11-17T07:24:14.451Z,8.73
2022-11-17T07:26:42.309Z,8.30
2022-11-17T07:29:10.214Z,9.33
2022-11-17T07:31:39.762Z,10.23
2022-11-17T07:34:07.615Z,9.30
2022-11-17T07:36:35.578Z,9.17
2022-11-17T07:39:03.569Z,10.53
2022-11-17T07:41:32.058Z,9.10
2022-11-17T07:44:00.284Z,8.73
2022-11-17T07:46:28.867Z,9.17
2022-11-17T07:48:58.081Z,9.00
2022-11-17T07:51:26.369Z,9.00
2022-11-17T07:53:54.374Z,8.70
2022-11-17T07:56:22.742Z,8.40
2022-11-17T07:58:50.582Z,9.77
2022-11-17T08:01:18.588Z,8.53
2022-11-17T08:03:46.525Z,9.00
2022-11-17T08:06:16.929Z,9.63
2022-11-17T08:08:44.960Z,8.93
2022-11-17T08:11:16.276Z,7.97
2022-11-17T08:13:44.136Z,8.30
2022-11-17T08:16:13.515Z,8.23
2022-11-17T08:18:43.101Z,9.27
2022-11-17T08:21:16.154Z,8.90
2022-11-17T08:23:44.084Z,8.80
2022-11-17T08:26:12.825Z,8.37
2022-11-17T08:28:41.081Z,7.93
2022-11-17T08:31:10.265Z,8.60
2022-11-17T08:33:38.180Z,8.83
2022-11-17T08:36:07.479Z,8.83
2022-11-17T08:38:37.312Z,9.27
2022-11-17T08:41:06.951Z,8.53
2022-11-17T08:43:34.915Z,9.33
2022-11-17T08:46:03.108Z,8.27
2022-11-17T08:48:31.846Z,9.27
2022-11-17T08:50:59.944Z,9.27
2022-11-17T08:53:27.984Z,8.77
2022-11-17T08:55:57.455Z,9.53
2022-11-17T08:58:25.328Z,9.03
2022-11-17T09:00:55.108Z,8.47
2022-11-17T09:03:23.775Z,8.80
2022-11-17T09:05:51.678Z,9.27
2022-11-17T09:08:44.444Z,9.37
2022-11-17T09:11:11.920Z,9.40
2022-11-17T09:13:40.882Z,9.27
2022-11-17T09:16:11.299Z,9.60
2022-11-17T09:18:41.394Z,9.63
2022-11-17T09:21:11.164Z,9.53
2022-11-17T09:23:39.576Z,9.20
2022-11-17T09:26:11.209Z,9.20
2022-11-17T09:28:39.587Z,10.07
2022-11-17T09:31:08.832Z,10.47
2022-11-17T09:33:37.403Z,9.10
2022-11-17T09:36:07.370Z,9.63
2022-11-17T09:38:35.627Z,9.90
2022-11-17T09:41:22.688Z,10.33
2022-11-17T09:43:58.392Z,9.93
2022-11-17T09:46:34.745Z,10.03
2022-11-17T09:49:13.868Z,9.77
2022-11-17T09:51:46.402Z,10.13
2022-11-17T09:54:22.768Z,10.37
2022-11-17T09:56:53.594Z,10.53
2022-11-17T09:59:22.619Z,10.53
2022-11-17T10:01:50.533Z,10.10
2022-11-17T10:04:19.139Z,10.13
2022-11-17T10:06:51.448Z,10.13
2022-11-17T10:09:29.313Z,9.93
2022-11-17T10:12:14.800Z,10.73
2022-11-17T10:14:43.223Z,10.40
2022-11-17T10:17:12.796Z,10.40
2022-11-17T10:19:41.525Z,10.03
2022-11-17T10:22:21.475Z,10.30
2022-11-17T10:24:51.646Z,9.87
2022-11-17T10:27:23.931Z,10.83
2022-11-17T10:30:03.542Z,11.20
2022-11-17T10:32:33.901Z,10.33
2022-11-17T10:35:15.803Z,11.07
2022-11-17T10:37:52.606Z,10.87
2022-11-17T10:40:25.312Z,10.77
2022-11-17T10:43:06.547Z,10.70
2022-11-17T10:45:35.423Z,10.67
2022-11-17T10:48:11.801Z,11.20
2022-11-17T10:50:52.488Z,11.27
2022-11-17T10:53:46.129Z,10.73
2022-11-17T10:56:17.729Z,16.27
2022-11-17T10:59:13.846Z,12.30
2022-11-17T11:01:43.541Z,12.87
2022-11-17T11:04:33.536Z,12.83
2022-11-17T11:07:12.700Z,14.47
2022-11-17T11:09:47.543Z,13.37
2022-11-17T11:12:18.579Z,13.13
2022-11-17T11:14:52.843Z,16.90
2022-11-17T11:17:21.377Z,12.27
2022-11-17T11:19:53.547Z,12.03
2022-11-17T11:22:32.639Z,13.50
2022-11-17T11:25:11.525Z,14.67
2022-11-17T11:27:53.144Z,12.47
2022-11-17T11:30:22.617Z,16.93
2022-11-17T11:33:04.468Z,12.40
2022-11-17T11:35:40.438Z,12.50
2022-11-17T11:38:22.137Z,12.53
2022-11-17T11:41:05.980Z,13.30
2022-11-17T11:43:40.825Z,12.23
2022-11-17T11:46:17.156Z,12.67
2022-11-17T11:48:48.154Z,12.23
2022-11-17T11:51:19.593Z,13.87
2022-11-17T11:53:53.084Z,12.17
2022-11-17T11:56:26.931Z,11.57
2022-11-17T11:59:01.792Z,10.67
2022-11-17T12:01:41.909Z,12.10
2022-11-17T12:04:22.534Z,10.90
2022-11-17T12:06:56.434Z,11.57
2022-11-17T12:09:49.288Z,11.00
2022-11-17T12:12:19.938Z,11.20
2022-11-17T12:15:31.004Z,11.83
2022-11-17T12:18:04.080Z,11.73
2022-11-17T12:20:51.186Z,12.63
2022-11-17T12:23:29.977Z,11.70
2022-11-17T12:25:59.661Z,12.43
2022-11-17T12:28:30.930Z,12.10
2022-11-17T12:31:05.091Z,12.53
2022-11-17T12:34:19.897Z,12.70
2022-11-17T12:37:08.129Z,12.83
2022-11-17T12:40:03.939Z,13.27
2022-11-17T12:42:37.736Z,13.50
2022-11-17T12:45:10.496Z,13.07
2022-11-17T12:47:40.035Z,13.80
2022-11-17T12:50:41.578Z,12.87
2022-11-17T12:53:32.136Z,13.97
2022-11-17T12:56:31.964Z,12.50
2022-11-17T12:59:12.831Z,13.10
2022-11-17T13:01:47.561Z,13.57
2022-11-17T13:04:18.349Z,13.93
2022-11-17T13:07:06.497Z,13.73
2022-11-17T13:09:36.419Z,12.63
2022-11-17T13:12:06.451Z,13.83
2022-11-17T13:14:35.880Z,13.50
2022-11-17T13:17:04.510Z,13.40
2022-11-17T13:19:35.883Z,14.20
2022-11-17T13:22:07.006Z,13.17
2022-11-17T13:24:37.375Z,13.07
2022-11-17T13:27:08.152Z,13.60
2022-11-17T13:29:36.633Z,13.43
2022-11-17T13:32:14.637Z,13.63
2022-11-17T13:34:50.801Z,13.53
2022-11-17T13:37:22.773Z,13.83
2022-11-17T13:40:01.712Z,13.00
2022-11-17T13:42:33.138Z,12.77
2022-11-17T13:45:04.014Z,13.70
2022-11-17T13:47:46.879Z,13.30
2022-11-17T13:50:38.311Z,13.97
2022-11-17T13:53:23.754Z,13.63
2022-11-17T13:55:53.401Z,14.63
2022-11-17T13:58:29.931Z,14.20
2022-11-17T14:00:59.375Z,13.53
2022-11-17T14:03:36.541Z,13.40
2022-11-17T14:06:06.964Z,13.77
2022-11-17T14:08:37.766Z,15.87
2022-11-17T14:11:08.898Z,14.17
2022-11-17T14:13:40.230Z,13.60
2022-11-17T14:16:21.942Z,13.10
2022-11-17T14:18:58.245Z,14.10
2022-11-17T14:21:26.536Z,14.13
2022-11-17T14:24:05.430Z,13.43
2022-11-17T14:26:33.680Z,14.00
2022-11-17T14:29:03.092Z,13.47
2022-11-17T14:31:32.035Z,12.37
2022-11-17T14:34:00.041Z,13.27
2022-11-17T14:36:28.316Z,13.00
2022-11-17T14:38:56.223Z,13.63
2022-11-17T14:41:25.610Z,13.53
2022-11-17T14:43:53.449Z,12.83
2022-11-17T14:46:23.988Z,12.80
2022-11-17T14:48:52.676Z,13.60
2022-11-17T14:51:21.371Z,13.00
2022-11-17T14:53:49.437Z,13.00
2022-11-17T14:56:19.385Z,12.50
2022-11-17T14:58:49.712Z,12.77
2022-11-17T15:01:19.943Z,11.87
2022-11-17T15:03:48.103Z,12.40
2022-11-17T15:06:19.826Z,11.97
2022-11-17T15:08:48.719Z,12.63
2022-11-17T15:11:19.052Z,12.77
2022-11-17T15:13:48.254Z,11.50
2022-11-17T15:16:16.112Z,12.90
2022-11-17T15:18:46.694Z,13.20
2022-11-17T15:21:16.278Z,11.33
2022-11-17T15:23:45.329Z,12.07
2022-11-17T15:26:15.133Z,11.37
2022-11-17T15:28:43.281Z,12.10
2022-11-17T15:31:14.631Z,11.10
2022-11-17T15:33:43.570Z,11.73
2022-11-17T15:36:12.936Z,11.60
2022-11-17T15:38:41.703Z,12.20
2022-11-17T15:41:12.370Z,11.67
2022-11-17T15:43:41.954Z,12.00
2022-11-17T15:46:11.562Z,12.33
2022-11-17T15:48:43.307Z,11.57
2022-11-17T15:51:12.647Z,11.63
2022-11-17T15:53:41.123Z,11.07
2022-11-17T15:56:11.498Z,11.00
2022-11-17T15:58:40.680Z,10.97
2022-11-17T16:01:10.588Z,11.10
2022-11-17T16:03:40.257Z,11.27
2022-11-17T16:06:10.762Z,10.97
2022-11-17T16:08:39.319Z,11.07
2022-11-17T16:11:07.646Z,11.10
2022-11-17T16:13:35.477Z,10.93
2022-11-17T16:16:04.333Z,10.47
2022-11-17T16:18:35.390Z,11.10
2022-11-17T16:21:05.191Z,10.50
2022-11-17T16:23:40.466Z,9.93
2022-11-17T16:26:09.186Z,10.40
2022-11-17T16:28:37.265Z,10.30
2022-11-17T16:31:15.843Z,11.10
2022-11-17T16:33:48.269Z,11.03
2022-11-17T16:36:16.329Z,10.67
2022-11-17T16:39:02.307Z,10.53
2022-11-17T16:41:33.450Z,10.07
2022-11-17T16:44:02.098Z,10.37
2022-11-17T16:46:31.836Z,10.23
2022-11-17T16:49:03.032Z,10.47
2022-11-17T16:51:31.551Z,11.43
2022-11-17T16:54:02.404Z,10.47
2022-11-17T16:56:30.710Z,11.50
2022-11-17T16:58:58.775Z,10.63
2022-11-17T17:01:28.626Z,10.83
2022-11-17T17:03:58.151Z,10.40
2022-11-17T17:06:26.906Z,10.73
2022-11-17T17:08:55.545Z,10.87
2022-11-17T17:11:25.307Z,11.47
2022-11-17T17:13:53.112Z,12.00
2022-11-17T17:16:21.618Z,11.40
2022-11-17T17:18:54.907Z,11.03
2022-11-17T17:21:22.826Z,11.43
2022-11-17T17:23:50.705Z,10.77
2022-11-17T17:26:21.944Z,11.40
2022-11-17T17:28:53.284Z,10.90
2022-11-17T17:31:23.381Z,11.60
2022-11-17T17:33:52.581Z,11.47
2022-11-17T17:36:22.033Z,11.67
2022-11-17T17:38:55.605Z,11.53
2022-11-17T17:41:25.910Z,11.83
2022-11-17T17:44:00.059Z,11.53
2022-11-17T17:46:30.918Z,11.20
2022-11-17T17:48:59.391Z,12.13
2022-11-17T17:51:29.461Z,11.43
2022-11-17T17:54:00.768Z,11.83
2022-11-17T17:56:30.519Z,11.33
2022-11-17T17:59:00.599Z,11.23
2022-11-17T18:01:30.641Z,11.43
2022-11-17T18:04:04.712Z,10.60
2022-11-17T18:06:37.137Z,10.20
2022-11-17T18:09:05.527Z,10.50
2022-11-17T18:11:33.534Z,10.73
2022-11-17T18:14:05.228Z,10.63
2022-11-17T18:16:35.079Z,11.50
2022-11-17T18:19:05.005Z,11.47
2022-11-17T18:21:33.293Z,11.00
2022-11-17T18:24:02.886Z,11.60
2022-11-17T18:26:32.883Z,12.20
2022-11-17T18:29:03.743Z,11.73
2022-11-17T18:31:33.494Z,11.43
2022-11-17T18:34:03.069Z,12.70
2022-11-17T18:36:31.173Z,12.10
2022-11-17T18:38:59.657Z,12.60
2022-11-17T18:41:30.678Z,12.73
2022-11-17T18:43:58.809Z,12.40
2022-11-17T18:46:29.606Z,12.37
2022-11-17T18:48:58.088Z,12.80
2022-11-17T18:51:27.514Z,12.57
2022-11-17T18:53:56.989Z,12.10
2022-11-17T18:56:26.812Z,12.47
2022-11-17T18:58:54.628Z,13.60
2022-11-17T19:01:24.399Z,13.50
2022-11-17T19:03:55.030Z,12.17
2022-11-17T19:06:25.693Z,13.30
2022-11-17T19:08:54.219Z,12.23
2022-11-17T19:11:23.812Z,12.40
2022-11-17T19:13:52.537Z,12.90
2022-11-17T19:16:21.933Z,12.50
2022-11-17T19:18:52.435Z,11.80
2022-11-17T19:21:25.645Z,11.93
2022-11-17T19:23:55.224Z,11.57
2022-11-17T19:26:25.015Z,11.80
2022-11-17T19:28:57.073Z,11.17
2022-11-17T19:31:25.693Z,11.43
2022-11-17T19:33:54.469Z,11.67
2022-11-17T19:36:25.113Z,11.57
2022-11-17T19:38:54.925Z,11.53
2022-11-17T19:41:25.006Z,11.87
2022-11-17T19:43:54.732Z,11.63
2022-11-17T19:46:23.444Z,11.57
2022-11-17T19:48:51.828Z,11.33
2022-11-17T19:51:21.508Z,11.47
2022-11-17T19:53:52.275Z,11.33
2022-11-17T19:56:20.894Z,11.20
2022-11-17T19:58:49.794Z,11.43
2022-11-17T20:01:19.968Z,11.77
2022-11-17T20:03:48.898Z,11.07
2022-11-17T20:06:18.371Z,11.37
2022-11-17T20:08:46.991Z,11.57
2022-11-17T20:11:17.831Z,11.83
2022-11-17T20:13:46.226Z,10.70
2022-11-17T20:16:15.601Z,11.37
2022-11-17T20:18:44.380Z,11.37
2022-11-17T20:21:13.986Z,11.40
2022-11-17T20:23:43.610Z,12.10
2022-11-17T20:26:13.697Z,12.20
2022-11-17T20:28:43.364Z,11.47
2022-11-17T20:31:12.812Z,11.40
2022-11-17T20:33:42.125Z,11.83
2022-11-17T20:36:13.631Z,12.00
2022-11-17T20:38:41.695Z,12.30
2022-11-17T20:41:09.820Z,11.57
2022-11-17T20:43:38.403Z,11.20
2022-11-17T20:46:07.857Z,11.53
2022-11-17T20:48:36.286Z,11.33
2022-11-17T20:51:06.468Z,11.03
2022-11-17T20:53:35.099Z,11.73
2022-11-17T20:56:04.383Z,11.03
2022-11-17T20:58:32.347Z,11.47
2022-11-17T21:01:00.464Z,11.60
2022-11-17T21:03:29.967Z,10.70
2022-11-17T21:06:00.654Z,10.83
2022-11-17T21:08:31.434Z,11.47
2022-11-17T21:11:01.172Z,11.07
2022-11-17T21:13:30.354Z,11.10
2022-11-17T21:16:10.392Z,11.50
2022-11-17T21:18:41.228Z,12.13
2022-11-17T21:21:09.666Z,11.40
2022-11-17T21:23:38.521Z,11.40
2022-11-17T21:26:07.414Z,11.63
2022-11-17T21:28:35.342Z,11.60
2022-11-17T21:31:06.354Z,12.17
2022-11-17T21:33:34.481Z,12.47
2022-11-17T21:36:05.170Z,12.10
2022-11-17T21:38:33.460Z,13.03
2022-11-17T21:41:04.622Z,13.50
2022-11-17T21:43:32.990Z,14.37
2022-11-17T21:46:03.966Z,13.63
2022-11-17T21:48:32.085Z,13.57
2022-11-17T21:51:00.111Z,13.53
2022-11-17T21:53:30.938Z,14.57
2022-11-17T21:56:02.215Z,14.47
2022-11-17T21:58:30.419Z,15.73
2022-11-17T22:00:58.558Z,13.80
2022-11-17T22:03:27.671Z,14.97
2022-11-17T22:06:01.015Z,15.63
2022-11-17T22:08:31.689Z,15.70
2022-11-17T22:11:04.351Z,15.53
2022-11-17T22:13:32.271Z,15.57
2022-11-17T22:16:05.109Z,16.13
2022-11-17T22:18:33.145Z,17.13
2022-11-17T22:21:01.058Z,16.53
2022-11-17T22:23:29.902Z,16.57
2022-11-17T22:26:01.144Z,15.33
2022-11-17T22:28:29.122Z,16.13
2022-11-17T22:30:57.366Z,16.57
2022-11-17T22:33:25.393Z,17.30
2022-11-17T22:35:53.360Z,17.40
2022-11-17T22:38:21.229Z,15.83
2022-11-17T22:40:49.220Z,16.63
2022-11-17T22:43:18.459Z,16.70
2022-11-17T22:45:46.314Z,15.13
2022-11-17T22:48:14.292Z,15.80
2022-11-17T22:50:42.194Z,16.33
2022-11-17T22:53:10.096Z,15.27
2022-11-17T22:55:38.112Z,16.07
2022-11-17T22:58:06.041Z,15.67
2022-11-17T23:00:35.242Z,15.53
2022-11-17T23:03:03.243Z,15.40
2022-11-17T23:05:31.159Z,14.63
2022-11-17T23:07:59.010Z,14.43
2022-11-17T23:10:27.038Z,14.60
2022-11-17T23:12:55.602Z,15.20
2022-11-17T23:15:23.503Z,15.47
2022-11-17T23:17:52.816Z,14.73
2022-11-17T23:20:20.669Z,15.53
2022-11-17T23:22:48.506Z,15.80
2022-11-17T23:25:16.544Z,15.50
2022-11-17T23:27:44.472Z,16.17
2022-11-17T23:30:13.921Z,16.57
2022-11-17T23:32:41.844Z,16.20
2022-11-17T23:35:11.553Z,16.20
2022-11-17T23:37:39.464Z,15.63
2022-11-17T23:40:08.557Z,15.63
2022-11-17T23:42:41.673Z,16.47
2022-11-17T23:45:12.934Z,15.47
2022-11-17T23:47:40.860Z,16.30
2022-11-17T23:50:09.674Z,16.33
2022-11-17T23:52:39.135Z,16.37
2022-11-17T23:55:08.595Z,17.07
2022-11-17T23:57:36.504Z,15.57
